Time;durP1;ratioP1;P1;durP2;ratioP2;P2;SDS_P1;SDS_P2;PMS_P1;PMS_P2;Temp;Humidity;BMP_temperature;BMP_pressure;BME280_temperature;BME280_humidity;BME280_pressure;Samples;Min_cycle;Max_cycle;Signal;HPM_P1;HPM_P2
2021/12/22 00:01:40;;;;;;;23.95;14.27;;;-0.70;85.80;;;;;;4935986;28;104980;-70
2021/12/22 00:04:07;;;;;;;22.80;13.65;;;-0.70;85.80;;;;;;4937600;28;92569;-70
2021/12/22 00:06:36;;;;;;;25.83;13.90;;;-0.70;85.70;;;;;;4937560;28;92428;-70
2021/12/22 00:09:05;;;;;;;22.40;13.37;;;-0.80;85.50;;;;;;4936090;28;93093;-70
2021/12/22 00:11:32;;;;;;;23.77;12.80;;;-0.80;85.50;;;;;;4935251;28;92809;-70
2021/12/22 00:13:59;;;;;;;26.08;13.52;;;-0.80;85.70;;;;;;4937707;28;92860;-70
2021/12/22 00:16:26;;;;;;;22.00;12.75;;;-0.80;85.70;;;;;;4936923;28;91828;-70
2021/12/22 00:18:53;;;;;;;26.52;13.35;;;-0.80;85.50;;;;;;4935999;28;92564;-70
2021/12/22 00:21:20;;;;;;;22.92;13.00;;;-0.80;85.50;;;;;;4935658;28;93047;-70
2021/12/22 00:23:47;;;;;;;23.60;13.15;;;-0.80;85.50;;;;;;4934709;28;95013;-71
2021/12/22 00:26:15;;;;;;;30.58;13.93;;;-0.80;85.50;;;;;;4937470;28;92645;-71
2021/12/22 00:28:45;;;;;;;19.50;11.27;;;-0.90;85.30;;;;;;4936171;28;93246;-71
2021/12/22 00:31:14;;;;;;;29.95;12.75;;;-0.90;85.30;;;;;;4935730;28;93079;-71
2021/12/22 00:33:50;;;;;;;24.40;11.60;;;-0.90;85.10;;;;;;4935889;28;92453;-71
2021/12/22 00:36:20;;;;;;;21.55;12.52;;;-0.90;85.10;;;;;;4937347;28;92356;-71
2021/12/22 00:38:48;;;;;;;19.48;11.82;;;-0.90;85.20;;;;;;4935826;28;94375;-71
2021/12/22 00:41:15;;;;;;;24.17;13.25;;;-0.90;85.10;;;;;;4935780;28;93125;-71
2021/12/22 00:43:42;;;;;;;22.95;12.93;;;-1.00;85.10;;;;;;4937146;28;92356;-71
2021/12/22 00:46:09;;;;;;;23.67;13.52;;;-1.00;85.10;;;;;;4935971;28;92819;-71
2021/12/22 00:48:36;;;;;;;20.70;12.38;;;-1.00;85.40;;;;;;4935927;28;95337;-71
2021/12/22 00:51:03;;;;;;;20.50;12.95;;;-1.00;85.50;;;;;;4919613;28;95150;-70
2021/12/22 00:53:30;;;;;;;19.52;13.02;;;-1.00;85.20;;;;;;4935678;28;92364;-71
2021/12/22 00:55:57;;;;;;;22.00;12.00;;;-1.00;85.10;;;;;;4935894;28;92825;-71
2021/12/22 00:58:24;;;;;;;19.33;11.48;;;-1.10;85.00;;;;;;4934702;28;111235;-71
2021/12/22 01:00:51;;;;;;;21.08;11.98;;;-1.10;85.00;;;;;;4936789;28;92894;-71
2021/12/22 01:03:20;;;;;;;17.80;11.60;;;-1.10;84.60;;;;;;4935612;28;92499;-71
2021/12/22 01:05:47;;;;;;;23.08;12.02;;;-1.10;84.70;;;;;;4937470;28;91669;-71
2021/12/22 01:08:15;;;;;;;20.13;12.15;;;-1.10;84.80;;;;;;4936578;28;92510;-71
2021/12/22 01:10:43;;;;;;;19.08;11.20;;;-1.20;84.50;;;;;;4936632;28;92923;-71
2021/12/22 01:13:11;;;;;;;20.45;11.88;;;-1.10;84.60;;;;;;4935418;28;94708;-71
2021/12/22 01:15:38;;;;;;;19.08;12.23;;;-1.20;84.50;;;;;;4935504;28;92961;-71
2021/12/22 01:18:14;;;;;;;21.33;12.70;;;-1.20;84.50;;;;;;4936407;28;94682;-71
2021/12/22 01:23:20;;;;;;;21.52;12.75;;;-1.20;84.50;;;;;;4935992;28;92486;-71
2021/12/22 01:25:48;;;;;;;20.92;13.25;;;-1.20;84.40;;;;;;4936533;28;92462;-71
2021/12/22 01:28:17;;;;;;;19.55;12.25;;;-1.20;84.40;;;;;;4934726;28;96487;-71
2021/12/22 01:30:47;;;;;;;18.42;12.43;;;-1.30;84.30;;;;;;4936595;28;92710;-71
2021/12/22 01:33:15;;;;;;;19.92;12.32;;;-1.30;84.10;;;;;;4936521;28;92401;-71
2021/12/22 01:35:43;;;;;;;19.10;11.43;;;-1.30;84.30;;;;;;4935306;28;92533;-71
2021/12/22 01:38:11;;;;;;;19.40;11.80;;;-1.30;84.10;;;;;;4933519;28;99684;-71
2021/12/22 01:40:43;;;;;;;19.33;11.75;;;-1.30;84.20;;;;;;4935876;28;95545;-71
2021/12/22 01:43:13;;;;;;;21.15;13.10;;;-1.40;84.20;;;;;;4936246;28;92521;-71
2021/12/22 01:51:25;;;;;;;18.33;12.65;;;-1.40;84.10;;;;;;4935665;28;92447;-71
2021/12/22 01:54:01;;;;;;;18.63;12.43;;;-1.40;84.50;;;;;;4936482;28;92404;-71
2021/12/22 01:56:30;;;;;;;21.50;12.82;;;-1.40;84.70;;;;;;4936187;28;91655;-72
2021/12/22 01:58:59;;;;;;;21.55;12.88;;;-1.50;84.50;;;;;;4934719;28;94621;-71
2021/12/22 02:01:28;;;;;;;22.30;12.50;;;-1.50;84.70;;;;;;4934578;28;94678;-71
2021/12/22 02:03:56;;;;;;;19.70;11.82;;;-1.50;84.70;;;;;;4934679;28;94884;-75
2021/12/22 02:06:23;;;;;;;19.58;12.32;;;-1.50;84.50;;;;;;4935805;28;92420;-70
2021/12/22 02:08:52;;;;;;;21.15;12.63;;;-1.50;84.20;;;;;;4918150;28;94313;-70
2021/12/22 02:11:20;;;;;;;20.40;11.95;;;-1.50;84.10;;;;;;4934168;28;92893;-71
2021/12/22 02:13:55;;;;;;;21.33;12.35;;;-1.60;84.00;;;;;;4933884;28;104797;-70
2021/12/22 02:16:27;;;;;;;21.75;12.88;;;-1.60;83.70;;;;;;4935944;28;92896;-70
2021/12/22 02:18:55;;;;;;;24.00;13.02;;;-1.60;83.80;;;;;;4936153;28;93091;-71
2021/12/22 02:21:25;;;;;;;22.17;13.00;;;-1.60;83.70;;;;;;4935681;28;92881;-70
2021/12/22 02:23:53;;;;;;;21.92;12.73;;;-1.60;83.70;;;;;;4935552;28;92437;-70
2021/12/22 02:26:30;;;;;;;22.75;13.23;;;-1.60;83.70;;;;;;4918629;28;92862;-71
2021/12/22 02:29:01;;;;;;;18.60;11.77;;;-1.70;84.00;;;;;;4933397;28;95339;-70
2021/12/22 02:31:28;;;;;;;19.88;12.60;;;-1.70;83.60;;;;;;4933890;28;98074;-70
2021/12/22 02:33:57;;;;;;;23.13;12.73;;;-1.70;83.70;;;;;;4934466;28;92709;-70
2021/12/22 02:36:28;;;;;;;22.05;13.38;;;-1.70;83.50;;;;;;4938709;28;92497;-70
2021/12/22 02:38:59;;;;;;;19.35;12.82;;;-1.80;83.40;;;;;;4939113;28;92966;-70
2021/12/22 02:41:29;;;;;;;18.95;12.60;;;-1.80;83.50;;;;;;4938844;28;92857;-70
2021/12/22 02:43:58;;;;;;;21.25;13.10;;;-1.80;83.70;;;;;;4937817;28;92556;-70
2021/12/22 02:46:32;;;;;;;23.27;13.55;;;-1.80;84.10;;;;;;4939043;28;91746;-70
2021/12/22 02:49:06;;;;;;;21.83;13.23;;;-1.80;83.30;;;;;;4937681;28;96128;-70
2021/12/22 02:51:34;;;;;;;24.38;15.07;;;-1.90;83.90;;;;;;4938343;28;97278;-71
2021/12/22 02:54:12;;;;;;;20.25;12.95;;;-1.90;84.00;;;;;;4936357;28;94861;-71
2021/12/22 03:04:34;;;;;;;24.25;14.65;;;-1.90;83.70;;;;;;4937079;28;92394;-71
2021/12/22 03:07:07;;;;;;;25.00;14.70;;;-1.90;83.30;;;;;;4919876;28;92777;-71
2021/12/22 03:09:35;;;;;;;21.45;13.00;;;-1.90;83.10;;;;;;4917651;28;93135;-71
2021/12/22 03:12:05;;;;;;;26.08;14.80;;;-1.90;82.90;;;;;;4919187;28;92789;-71
2021/12/22 03:14:33;;;;;;;20.98;12.88;;;-2.00;83.20;;;;;;4917764;28;92537;-71
2021/12/22 03:17:00;;;;;;;24.63;12.93;;;-2.00;82.90;;;;;;4918500;28;106878;-71
2021/12/22 03:19:34;;;;;;;23.35;13.75;;;-2.00;83.00;;;;;;4917786;28;95407;-71
2021/12/22 03:22:04;;;;;;;27.70;14.20;;;-2.00;83.60;;;;;;4918659;28;94061;-71
2021/12/22 03:24:35;;;;;;;25.20;14.85;;;-2.00;83.30;;;;;;4919011;28;92374;-71
2021/12/22 03:27:03;;;;;;;22.70;14.25;;;-2.10;83.10;;;;;;4917331;28;92510;-71
2021/12/22 03:29:32;;;;;;;25.38;16.00;;;-2.10;83.20;;;;;;4918716;28;92599;-71
2021/12/22 03:31:59;;;;;;;24.73;14.45;;;-2.10;82.90;;;;;;4918399;28;97251;-71
2021/12/22 03:34:27;;;;;;;22.48;14.23;;;-2.10;82.90;;;;;;4917608;28;92926;-71
2021/12/22 03:36:54;;;;;;;20.40;13.18;;;-2.10;83.00;;;;;;4917337;28;99388;-71
2021/12/22 03:39:21;;;;;;;28.33;14.35;;;-2.10;83.20;;;;;;4918621;28;93117;-71
2021/12/22 03:41:48;;;;;;;22.67;13.70;;;-2.10;83.10;;;;;;4916754;28;94093;-71
2021/12/22 03:44:16;;;;;;;25.70;15.60;;;-2.10;83.30;;;;;;4915995;28;94925;-71
2021/12/22 03:46:43;;;;;;;26.00;14.32;;;-2.10;83.30;;;;;;4917003;28;92483;-71
2021/12/22 03:49:13;;;;;;;22.77;14.07;;;-2.10;83.30;;;;;;4918621;28;93114;-71
2021/12/22 03:51:40;;;;;;;23.73;14.20;;;-2.20;82.70;;;;;;4918188;28;92838;-71
2021/12/22 03:54:09;;;;;;;22.65;14.00;;;-2.20;82.90;;;;;;4917504;28;92943;-71
2021/12/22 03:56:36;;;;;;;22.35;14.05;;;-2.20;83.20;;;;;;4918154;28;92650;-71
2021/12/22 03:59:04;;;;;;;23.42;14.80;;;-2.20;83.40;;;;;;4918374;28;93006;-72
2021/12/22 04:01:32;;;;;;;24.92;13.35;;;-2.20;83.10;;;;;;4918669;28;92939;-71
2021/12/22 04:04:05;;;;;;;24.45;14.40;;;-2.20;83.00;;;;;;4916783;28;92508;-71
2021/12/22 04:06:32;;;;;;;25.95;14.80;;;-2.20;83.00;;;;;;4918448;28;92490;-71
2021/12/22 04:08:59;;;;;;;23.95;14.00;;;-2.20;83.10;;;;;;4914836;28;113705;-71
2021/12/22 04:11:26;;;;;;;24.13;14.07;;;-2.20;83.00;;;;;;4916677;28;98245;-71
2021/12/22 04:13:53;;;;;;;24.15;14.20;;;-2.30;83.00;;;;;;4918157;28;92822;-71
2021/12/22 04:16:20;;;;;;;24.08;14.02;;;-2.30;82.90;;;;;;4917154;28;92485;-71
2021/12/22 04:18:47;;;;;;;21.45;13.52;;;-2.30;83.00;;;;;;4916334;28;95929;-71
2021/12/22 04:21:14;;;;;;;21.42;13.60;;;-2.30;82.90;;;;;;4916311;28;94173;-71
2021/12/22 04:23:41;;;;;;;22.00;14.32;;;-2.30;83.00;;;;;;4917580;28;92761;-71
2021/12/22 04:26:10;;;;;;;20.10;12.88;;;-2.30;83.00;;;;;;4918603;28;91708;-71
2021/12/22 04:28:37;;;;;;;26.58;14.95;;;-2.30;82.90;;;;;;4917852;28;93242;-72
2021/12/22 04:31:04;;;;;;;22.05;14.48;;;-2.30;82.80;;;;;;4917856;28;92798;-71
2021/12/22 04:33:31;;;;;;;22.23;14.00;;;-2.30;82.70;;;;;;4916684;28;94862;-71
2021/12/22 04:35:58;;;;;;;19.95;13.30;;;-2.30;82.70;;;;;;4916206;28;92428;-71
2021/12/22 04:38:25;;;;;;;22.45;13.50;;;-2.30;82.50;;;;;;4916347;28;95811;-72
2021/12/22 04:40:52;;;;;;;20.58;13.43;;;-2.30;82.60;;;;;;4915912;28;105548;-71
2021/12/22 04:43:19;;;;;;;19.67;13.55;;;-2.30;82.40;;;;;;4916483;28;92485;-71
2021/12/22 04:45:46;;;;;;;23.02;13.75;;;-2.40;82.80;;;;;;4916598;28;92512;-71
2021/12/22 04:48:14;;;;;;;23.33;14.77;;;-2.40;82.30;;;;;;4917595;28;92991;-71
2021/12/22 04:50:41;;;;;;;20.88;12.98;;;-2.40;82.70;;;;;;4917837;28;92952;-71
2021/12/22 04:53:13;;;;;;;23.77;12.45;;;-2.40;83.30;;;;;;4917667;28;92418;-71
2021/12/22 04:55:40;;;;;;;23.75;13.95;;;-2.40;83.10;;;;;;4916271;28;92406;-71
2021/12/22 04:58:07;;;;;;;24.60;14.07;;;-2.40;83.30;;;;;;4914465;28;95429;-71
2021/12/22 05:00:37;;;;;;;22.58;14.25;;;-2.40;83.60;;;;;;4917055;28;104997;-71
2021/12/22 05:03:04;;;;;;;21.52;13.93;;;-2.40;83.60;;;;;;4917296;28;92717;-71
2021/12/22 05:05:32;;;;;;;21.42;13.25;;;-2.40;83.90;;;;;;4916395;28;92539;-71
2021/12/22 05:07:59;;;;;;;27.50;13.82;;;-2.40;83.30;;;;;;4899825;28;95912;-71
2021/12/22 05:10:27;;;;;;;19.77;12.52;;;-2.50;83.30;;;;;;4917380;28;98800;-72
2021/12/22 05:12:54;;;;;;;23.13;13.48;;;-2.50;83.10;;;;;;4916972;28;92538;-71
2021/12/22 05:15:23;;;;;;;17.23;10.35;;;-2.50;82.90;;;;;;4917533;28;91975;-71
2021/12/22 05:20:22;;;;;;;22.48;13.93;;;-2.50;83.20;;;;;;4916986;28;97820;-71
2021/12/22 05:22:49;;;;;;;20.33;14.02;;;-2.50;82.90;;;;;;4929929;28;94900;-71
2021/12/22 05:25:17;;;;;;;23.67;14.45;;;-2.50;82.80;;;;;;4915732;28;95975;-72
2021/12/22 05:27:44;;;;;;;22.02;13.52;;;-2.50;82.80;;;;;;4915787;28;95681;-71
2021/12/22 05:30:12;;;;;;;25.40;14.15;;;-2.50;82.70;;;;;;4915119;28;97908;-71
2021/12/22 05:32:40;;;;;;;22.42;12.98;;;-2.50;82.80;;;;;;4916922;28;92489;-72
2021/12/22 05:35:09;;;;;;;24.38;13.70;;;-2.60;82.70;;;;;;4916979;28;92363;-71
2021/12/22 05:37:37;;;;;;;21.15;13.23;;;-2.60;82.90;;;;;;4917030;28;92539;-72
2021/12/22 05:40:08;;;;;;;21.88;13.38;;;-2.60;82.70;;;;;;4915834;28;92942;-71
2021/12/22 05:42:36;;;;;;;25.25;13.60;;;-2.60;82.70;;;;;;4917311;28;92367;-71
2021/12/22 05:45:04;;;;;;;21.50;11.95;;;-2.60;83.40;;;;;;4916837;28;92445;-72
2021/12/22 05:47:32;;;;;;;23.00;14.40;;;-2.50;83.30;;;;;;4915220;28;99255;-72
2021/12/22 05:49:59;;;;;;;24.17;14.65;;;-2.60;82.80;;;;;;4931157;28;98012;-71
2021/12/22 05:52:26;;;;;;;25.05;15.23;;;-2.60;82.80;;;;;;4916653;28;92867;-72
2021/12/22 05:54:53;;;;;;;25.80;14.40;;;-2.60;83.20;;;;;;4915251;28;92468;-71
2021/12/22 05:57:20;;;;;;;23.30;13.48;;;-2.60;83.20;;;;;;4916551;28;92466;-71
2021/12/22 05:59:47;;;;;;;22.67;13.38;;;-2.60;83.30;;;;;;4916675;28;92874;-71
2021/12/22 06:02:14;;;;;;;22.75;14.00;;;-2.60;83.50;;;;;;4915161;28;92641;-75
2021/12/22 06:04:41;;;;;;;22.67;13.57;;;-2.60;83.40;;;;;;4915631;28;91670;-76
2021/12/22 06:07:08;;;;;;;25.25;15.35;;;-2.60;83.70;;;;;;4915142;28;94702;-76
2021/12/22 06:09:35;;;;;;;25.98;13.45;;;-2.60;83.60;;;;;;4915950;28;93976;-76
2021/12/22 06:12:02;;;;;;;26.15;14.30;;;-2.60;83.60;;;;;;4917141;28;94867;-76
2021/12/22 06:14:29;;;;;;;20.70;11.77;;;-2.60;83.70;;;;;;4920164;28;92438;-71
2021/12/22 06:16:56;;;;;;;24.55;12.90;;;-2.60;83.20;;;;;;4919633;28;93098;-71
2021/12/22 06:19:23;;;;;;;23.92;14.65;;;-2.60;83.30;;;;;;4918566;28;92927;-71
2021/12/22 06:21:50;;;;;;;24.02;13.80;;;-2.60;83.40;;;;;;4918556;28;93202;-71
2021/12/22 06:24:17;;;;;;;22.75;13.20;;;-2.60;83.10;;;;;;4919110;28;92464;-71
2021/12/22 06:26:44;;;;;;;25.83;13.68;;;-2.60;83.60;;;;;;4919909;28;93296;-72
2021/12/22 06:29:12;;;;;;;24.25;13.15;;;-2.60;83.50;;;;;;4919906;28;92909;-72
2021/12/22 06:31:39;;;;;;;23.23;14.35;;;-2.60;82.90;;;;;;4919585;28;92496;-72
2021/12/22 06:34:08;;;;;;;27.65;14.73;;;-2.50;83.30;;;;;;4919317;28;92442;-72
2021/12/22 06:36:35;;;;;;;27.92;15.35;;;-2.50;82.80;;;;;;4917065;28;95536;-72
2021/12/22 06:39:04;;;;;;;23.88;13.50;;;-2.50;82.30;;;;;;4919154;28;95181;-72
2021/12/22 06:41:32;;;;;;;23.17;12.43;;;-2.50;82.50;;;;;;4918197;28;92518;-72
2021/12/22 06:43:59;;;;;;;23.85;12.77;;;-2.60;82.20;;;;;;4919497;28;92453;-71
2021/12/22 06:46:26;;;;;;;22.58;13.20;;;-2.50;82.20;;;;;;4919534;28;93101;-72
2021/12/22 06:48:54;;;;;;;28.48;14.20;;;-2.50;82.40;;;;;;4918357;28;94099;-72
2021/12/22 06:51:21;;;;;;;23.67;13.52;;;-2.50;82.20;;;;;;4919240;28;92465;-71
2021/12/22 06:53:48;;;;;;;25.05;14.65;;;-2.50;82.20;;;;;;4919662;28;91734;-77
2021/12/22 06:56:15;;;;;;;23.90;12.90;;;-2.50;82.40;;;;;;4918009;28;93087;-77
2021/12/22 06:58:42;;;;;;;23.20;12.63;;;-2.50;82.40;;;;;;4901847;28;104639;-72
2021/12/22 07:01:12;;;;;;;25.30;14.80;;;-2.50;82.20;;;;;;4918140;28;94820;-71
2021/12/22 07:03:39;;;;;;;20.52;13.27;;;-2.50;82.00;;;;;;4918443;28;92437;-72
2021/12/22 07:06:06;;;;;;;24.08;13.65;;;-2.50;82.30;;;;;;4919167;28;93215;-72
2021/12/22 07:08:33;;;;;;;26.77;13.85;;;-2.50;82.20;;;;;;4919097;28;92925;-71
2021/12/22 07:11:00;;;;;;;23.73;13.80;;;-2.50;81.90;;;;;;4919330;28;92471;-72
2021/12/22 07:13:27;;;;;;;24.23;14.25;;;-2.50;82.20;;;;;;4925836;28;92705;-71
2021/12/22 07:15:54;;;;;;;23.42;14.02;;;-2.50;82.80;;;;;;4938299;28;95315;-71
2021/12/22 07:18:21;;;;;;;25.30;14.70;;;-2.50;82.30;;;;;;4936919;28;95634;-71
2021/12/22 07:20:48;;;;;;;24.10;12.38;;;-2.50;82.50;;;;;;4937842;28;92526;-72
2021/12/22 07:23:16;;;;;;;23.48;14.15;;;-2.50;82.60;;;;;;4937636;28;92519;-72
2021/12/22 07:25:42;;;;;;;26.55;13.45;;;-2.50;82.70;;;;;;4935385;28;101410;-72
2021/12/22 07:28:10;;;;;;;23.55;13.77;;;-2.50;82.50;;;;;;4936640;28;98115;-71
2021/12/22 07:30:38;;;;;;;22.40;13.90;;;-2.50;82.50;;;;;;4937699;28;101519;-72
2021/12/22 07:33:05;;;;;;;23.55;13.10;;;-2.50;82.20;;;;;;4938146;28;92511;-72
2021/12/22 07:35:41;;;;;;;24.85;14.35;;;-2.50;82.10;;;;;;4937906;28;97529;-72
2021/12/22 07:38:30;;;;;;;21.90;13.45;;;-2.50;82.60;;;;;;4937899;28;92823;-72
2021/12/22 07:40:58;;;;;;;24.92;12.57;;;-2.50;82.50;;;;;;4936921;28;92779;-72
2021/12/22 07:43:26;;;;;;;30.35;16.42;;;-2.50;82.40;;;;;;4952974;28;91777;-72
2021/12/22 07:45:54;;;;;;;21.25;12.98;;;-2.50;82.50;;;;;;4936306;28;95683;-71
2021/12/22 07:48:21;;;;;;;31.42;20.98;;;-2.50;82.30;;;;;;4968539;28;94270;-72
2021/12/22 07:50:48;;;;;;;37.42;22.65;;;-2.50;82.30;;;;;;4936921;28;94920;-72
2021/12/22 07:53:15;;;;;;;27.63;15.25;;;-2.50;82.60;;;;;;4937477;28;92476;-72
2021/12/22 07:55:42;;;;;;;28.88;18.70;;;-2.50;82.50;;;;;;4937526;28;95334;-72
2021/12/22 07:58:09;;;;;;;48.40;26.08;;;-2.40;82.30;;;;;;4937653;28;92931;-72
2021/12/22 08:00:37;;;;;;;28.42;16.95;;;-2.40;82.50;;;;;;4937627;28;92432;-72
2021/12/22 08:03:04;;;;;;;25.10;14.85;;;-2.40;82.10;;;;;;4968821;28;92555;-72
2021/12/22 08:05:52;;;;;;;29.08;15.73;;;-2.40;82.00;;;;;;4937445;28;93219;-72
2021/12/22 08:08:20;;;;;;;29.08;18.77;;;-2.40;81.70;;;;;;4937688;28;92908;-72
2021/12/22 08:10:49;;;;;;;29.55;19.85;;;-2.30;81.70;;;;;;4937458;28;92459;-72
2021/12/22 08:13:16;;;;;;;27.80;15.38;;;-2.30;81.80;;;;;;4968658;28;92512;-72
2021/12/22 08:15:44;;;;;;;252.50;133.57;;;-2.30;81.40;;;;;;4934832;28;98103;-71
2021/12/22 08:18:12;;;;;;;160.13;73.70;;;-2.20;81.60;;;;;;4936494;28;95417;-72
2021/12/22 08:20:39;;;;;;;46.92;29.10;;;-2.20;81.80;;;;;;4968726;28;92492;-72
2021/12/22 08:23:06;;;;;;;32.00;20.60;;;-2.20;81.90;;;;;;4936897;28;92887;-71
2021/12/22 08:25:33;;;;;;;29.27;15.95;;;-2.10;81.80;;;;;;4951485;28;100825;-72
2021/12/22 08:28:00;;;;;;;24.83;14.60;;;-2.10;81.80;;;;;;4968366;28;94257;-72
2021/12/22 08:30:27;;;;;;;32.45;15.75;;;-2.00;82.30;;;;;;4935939;28;92510;-71
2021/12/22 08:32:55;;;;;;;23.42;14.90;;;-1.90;81.50;;;;;;4967990;28;91838;-71
2021/12/22 08:35:25;;;;;;;26.50;15.15;;;-1.90;81.40;;;;;;4936772;28;93110;-76
2021/12/22 08:40:38;;;;;;;23.92;14.30;;;-1.70;81.40;;;;;;4935678;28;94848;-76
2021/12/22 08:43:05;;;;;;;26.88;16.42;;;-1.70;81.00;;;;;;4937377;28;92464;-76
2021/12/22 08:45:32;;;;;;;25.83;13.95;;;-1.60;80.90;;;;;;4935239;28;95725;-76
2021/12/22 08:47:59;;;;;;;23.70;13.57;;;-1.50;81.10;;;;;;4935401;28;95648;-77
2021/12/22 08:50:27;;;;;;;24.13;14.23;;;-1.50;80.90;;;;;;4936720;28;92476;-76
2021/12/22 08:52:55;;;;;;;20.10;12.70;;;-1.40;80.90;;;;;;4935605;28;92492;-76
2021/12/22 08:55:22;;;;;;;24.52;14.10;;;-1.40;80.70;;;;;;4936621;28;93203;-76
2021/12/22 08:57:49;;;;;;;24.25;13.13;;;-1.30;81.30;;;;;;4937047;28;92927;-76
2021/12/22 09:00:16;;;;;;;24.88;14.63;;;-1.30;80.80;;;;;;4968029;28;92612;-77
2021/12/22 09:02:45;;;;;;;24.67;13.23;;;-1.20;80.80;;;;;;4936929;28;92556;-77
2021/12/22 09:05:12;;;;;;;24.60;14.50;;;-1.10;80.60;;;;;;4935155;28;95305;-77
2021/12/22 09:07:39;;;;;;;28.45;14.30;;;-1.00;80.30;;;;;;4950890;28;111649;-77
2021/12/22 09:10:07;;;;;;;24.10;14.82;;;-1.00;80.00;;;;;;4967824;28;92624;-77
2021/12/22 09:12:34;;;;;;;24.27;15.80;;;-0.90;80.00;;;;;;4967339;28;92534;-77
2021/12/22 09:15:01;;;;;;;24.42;14.05;;;-0.80;79.80;;;;;;4936629;28;93122;-77
2021/12/22 09:17:28;;;;;;;25.63;14.43;;;-0.70;80.00;;;;;;4967179;28;92932;-77
2021/12/22 09:19:55;;;;;;;25.15;15.35;;;-0.70;79.80;;;;;;4935139;28;93428;-76
2021/12/22 09:22:23;;;;;;;24.80;15.32;;;-0.70;79.80;;;;;;4936959;28;91660;-76
2021/12/22 09:24:50;;;;;;;25.67;16.40;;;-0.60;79.70;;;;;;4936015;28;92911;-76
2021/12/22 09:27:17;;;;;;;27.48;16.13;;;-0.60;80.00;;;;;;4934733;28;93964;-76
2021/12/22 09:29:45;;;;;;;28.00;15.95;;;-0.50;80.00;;;;;;4935113;28;94739;-76
2021/12/22 09:32:15;;;;;;;25.98;15.00;;;-0.50;80.00;;;;;;4936143;28;92446;-76
2021/12/22 09:34:43;;;;;;;27.77;15.85;;;-0.40;79.90;;;;;;4936380;28;93020;-76
2021/12/22 09:37:10;;;;;;;26.15;14.57;;;-0.40;79.80;;;;;;4966581;28;109926;-76
2021/12/22 09:39:38;;;;;;;24.25;14.77;;;-0.30;79.60;;;;;;4934899;28;92526;-77
2021/12/22 09:42:05;;;;;;;24.85;14.23;;;-0.30;79.30;;;;;;4936283;28;92409;-76
2021/12/22 09:44:37;;;;;;;25.25;14.45;;;-0.30;79.70;;;;;;4966788;28;92731;-76
2021/12/22 09:47:05;;;;;;;26.00;15.63;;;-0.30;80.10;;;;;;4936413;28;94069;-76
2021/12/22 09:52:18;;;;;;;25.88;15.95;;;-0.10;79.60;;;;;;4936595;28;92931;-76
2021/12/22 09:54:57;;;;;;;23.88;14.45;;;0.00;80.00;;;;;;4934655;28;95401;-76
2021/12/22 09:57:24;;;;;;;23.13;14.52;;;0.10;79.60;;;;;;4935846;28;95292;-76
2021/12/22 09:59:53;;;;;;;26.33;14.90;;;0.20;79.30;;;;;;4936239;28;92956;-77
2021/12/22 10:02:22;;;;;;;24.60;14.63;;;0.30;79.10;;;;;;4936203;28;92439;-76
2021/12/22 10:04:49;;;;;;;25.88;15.10;;;0.40;78.50;;;;;;4950156;28;93010;-76
2021/12/22 10:07:20;;;;;;;27.10;15.20;;;0.50;78.50;;;;;;4935754;28;92959;-76
2021/12/22 10:09:48;;;;;;;24.98;14.85;;;0.60;78.30;;;;;;4935969;28;92395;-76
2021/12/22 10:12:23;;;;;;;27.80;15.50;;;0.60;77.80;;;;;;4934407;28;104356;-77
2021/12/22 10:14:52;;;;;;;24.20;15.00;;;0.70;77.80;;;;;;4935687;28;93590;-77
2021/12/22 10:17:40;;;;;;;24.55;15.27;;;0.70;77.90;;;;;;4935740;28;92922;-77
2021/12/22 10:20:10;;;;;;;25.70;14.80;;;0.80;78.10;;;;;;4949486;28;94809;-77
2021/12/22 10:22:43;;;;;;;29.52;13.95;;;0.80;77.50;;;;;;4934262;28;92530;-77
2021/12/22 10:25:23;;;;;;;28.00;15.70;;;0.90;77.60;;;;;;4934342;28;95724;-77
2021/12/22 10:28:18;;;;;;;24.42;14.55;;;0.90;77.10;;;;;;4935901;28;92839;-76
2021/12/22 10:30:45;;;;;;;;;;;1.00;77.00;;;;;;4935987;28;92980;-77
2021/12/22 10:33:33;;;;;;;23.15;14.07;;;1.00;77.10;;;;;;4937298;28;92565;-77
2021/12/22 10:36:08;;;;;;;24.13;14.15;;;1.10;77.00;;;;;;4935590;28;93098;-77
2021/12/22 10:38:35;;;;;;;26.05;15.05;;;1.10;76.80;;;;;;4934481;28;95591;-76
2021/12/22 10:41:07;;;;;;;22.95;14.07;;;1.20;77.00;;;;;;4934679;28;92626;-77
2021/12/22 10:43:44;;;;;;;28.00;14.98;;;1.30;77.20;;;;;;4966795;28;93116;-77
2021/12/22 10:46:15;;;;;;;28.08;14.18;;;1.30;77.00;;;;;;4934531;28;95398;-77
2021/12/22 10:51:32;;;;;;;24.55;15.25;;;1.30;77.00;;;;;;4966611;28;92639;-77
2021/12/22 10:54:06;;;;;;;29.33;12.65;;;1.40;77.10;;;;;;4966650;28;92482;-77
2021/12/22 10:56:34;;;;;;;22.83;14.47;;;1.50;76.50;;;;;;4937423;28;97253;-76
2021/12/22 10:59:15;;;;;;;19.35;11.90;;;1.60;76.70;;;;;;4937554;28;92924;-76
2021/12/22 11:01:56;;;;;;;24.48;14.75;;;1.70;76.50;;;;;;4937268;28;92503;-76
2021/12/22 11:04:31;;;;;;;18.80;12.88;;;1.80;76.60;;;;;;4939403;28;91739;-76
2021/12/22 11:07:19;;;;;;;20.35;12.65;;;1.80;76.40;;;;;;4938689;28;93207;-77
2021/12/22 11:09:46;;;;;;;20.55;13.35;;;1.90;76.10;;;;;;4938481;28;92805;-77
2021/12/22 11:12:17;;;;;;;17.92;11.95;;;1.90;76.00;;;;;;4937585;28;95157;-76
2021/12/22 11:14:50;;;;;;;22.45;13.18;;;1.90;76.40;;;;;;4938508;28;92808;-76
2021/12/22 11:17:20;;;;;;;21.48;12.57;;;1.90;76.00;;;;;;4937121;28;95571;-76
2021/12/22 11:19:54;;;;;;;19.30;11.73;;;1.90;75.60;;;;;;4969163;28;93414;-76
2021/12/22 11:22:36;;;;;;;20.58;11.90;;;2.00;75.40;;;;;;4970143;28;92897;-77
2021/12/22 11:25:05;;;;;;;20.45;12.43;;;2.00;75.80;;;;;;4938559;28;92533;-76
2021/12/22 11:27:35;;;;;;;18.48;11.73;;;2.00;75.30;;;;;;4936996;28;95621;-77
2021/12/22 11:30:03;;;;;;;21.75;11.90;;;2.10;75.50;;;;;;4969478;28;92779;-77
2021/12/22 11:32:31;;;;;;;21.33;12.55;;;2.10;75.50;;;;;;4938331;28;92938;-76
2021/12/22 11:35:00;;;;;;;18.27;11.70;;;2.10;75.10;;;;;;4936908;28;92518;-77
2021/12/22 11:37:28;;;;;;;20.60;12.63;;;2.20;75.60;;;;;;4936303;28;102889;-77
2021/12/22 11:39:57;;;;;;;19.80;12.15;;;2.20;76.20;;;;;;4936430;28;94177;-77
2021/12/22 11:42:31;;;;;;;24.42;11.95;;;2.30;75.20;;;;;;4938155;28;92368;-76
2021/12/22 11:45:14;;;;;;;18.33;12.13;;;2.30;75.20;;;;;;4938079;28;92348;-76
2021/12/22 11:47:45;;;;;;;21.47;12.27;;;2.30;75.00;;;;;;4937799;28;92881;-77
2021/12/22 11:50:16;;;;;;;19.65;12.02;;;2.40;75.50;;;;;;4936621;28;94007;-76
2021/12/22 11:53:00;;;;;;;16.95;11.75;;;2.30;75.20;;;;;;4937790;28;92433;-76
2021/12/22 11:55:38;;;;;;;18.17;12.60;;;2.30;75.10;;;;;;4938646;28;91707;-76
2021/12/22 11:58:40;;;;;;;20.08;11.98;;;2.30;75.70;;;;;;4937648;28;93062;-71
2021/12/22 12:01:11;;;;;;;22.50;13.60;;;2.40;75.40;;;;;;4940535;28;92870;-76
2021/12/22 12:03:44;;;;;;;21.15;13.02;;;2.40;75.10;;;;;;4936778;28;94766;-72
2021/12/22 12:06:12;;;;;;;17.83;11.07;;;2.40;76.40;;;;;;4938171;28;92352;-71
2021/12/22 12:08:54;;;;;;;17.38;11.57;;;2.50;75.80;;;;;;4934893;28;96497;-71
2021/12/22 12:11:36;;;;;;;20.67;12.32;;;2.60;75.60;;;;;;4936545;28;92476;-72
2021/12/22 12:14:13;;;;;;;21.30;12.48;;;2.60;75.20;;;;;;4937284;28;92550;-72
2021/12/22 12:22:37;;;;;;;21.73;12.35;;;2.60;74.90;;;;;;4937833;28;92893;-72
2021/12/22 12:25:10;;;;;;;20.98;12.25;;;2.50;75.20;;;;;;4935783;28;92468;-72
2021/12/22 12:27:47;;;;;;;26.15;15.40;;;2.50;75.60;;;;;;4937709;28;92507;-72
2021/12/22 12:30:40;;;;;;;24.38;14.32;;;2.50;75.40;;;;;;4936449;28;95492;-72
2021/12/22 12:33:11;;;;;;;18.13;13.13;;;2.50;76.20;;;;;;4937157;28;92474;-72
2021/12/22 12:36:08;;;;;;;18.63;12.45;;;2.40;76.10;;;;;;4951997;28;95621;-71
2021/12/22 12:38:52;;;;;;;19.95;12.55;;;2.40;76.00;;;;;;4936302;28;92827;-71
2021/12/22 12:41:27;;;;;;;17.85;11.63;;;2.50;75.60;;;;;;4935646;28;99966;-71
2021/12/22 12:44:06;;;;;;;19.70;12.95;;;2.40;76.20;;;;;;4936055;28;92911;-72
2021/12/22 12:46:43;;;;;;;21.30;12.95;;;2.40;75.40;;;;;;4937428;28;92491;-71
2021/12/22 12:49:13;;;;;;;20.98;12.43;;;2.40;76.00;;;;;;4937701;28;92608;-71
2021/12/22 12:52:00;;;;;;;21.42;12.82;;;2.40;75.90;;;;;;4935454;28;95890;-72
2021/12/22 12:54:34;;;;;;;14.93;8.98;;;2.40;76.60;;;;;;4936626;28;92699;-72
2021/12/22 12:57:20;;;;;;;17.75;9.75;;;2.50;76.90;;;;;;4936556;28;95415;-71
2021/12/22 12:59:50;;;;;;;17.40;9.15;;;2.50;77.20;;;;;;4937681;28;92476;-71
2021/12/22 13:02:26;;;;;;;20.38;11.63;;;2.40;77.00;;;;;;4936072;28;95828;-71
2021/12/22 13:05:06;;;;;;;16.92;10.63;;;2.40;76.30;;;;;;4936853;28;93136;-71
2021/12/22 13:07:34;;;;;;;16.73;10.40;;;2.50;77.00;;;;;;4952194;28;92517;-71
2021/12/22 13:10:25;;;;;;;20.13;11.38;;;2.40;77.70;;;;;;4935046;28;92520;-71
2021/12/22 13:13:14;;;;;;;17.23;11.07;;;2.50;76.90;;;;;;4936741;28;92900;-72
2021/12/22 13:15:46;;;;;;;15.18;10.93;;;2.50;76.30;;;;;;4935829;28;92842;-71